sensor_id;sensor_type;location;lat;lon;timestamp;pressure;altitude;pressure_sealevel;temperature;humidity
82746;BME280;72484;50.004;14.356;2024-01-30T00:00:37;99704.52;;;0.47;81.69
82746;BME280;72484;50.004;14.356;2024-01-30T00:04:15;99709.10;;;0.45;82.07
82746;BME280;72484;50.004;14.356;2024-01-30T00:07:52;99713.82;;;0.46;82.47
82746;BME280;72484;50.004;14.356;2024-01-30T00:11:13;99717.59;;;0.44;81.95
82746;BME280;72484;50.004;14.356;2024-01-30T00:15:11;99718.35;;;0.44;82.23
82746;BME280;72484;50.004;14.356;2024-01-30T00:19:27;99714.02;;;0.51;82.78
82746;BME280;72484;50.004;14.356;2024-01-30T00:23:05;99709.30;;;0.54;82.80
82746;BME280;72484;50.004;14.356;2024-01-30T00:26:25;99706.55;;;0.61;83.10
82746;BME280;72484;50.004;14.356;2024-01-30T00:30:24;99699.66;;;0.68;83.02
82746;BME280;72484;50.004;14.356;2024-01-30T00:34:39;99691.17;;;0.77;82.69
82746;BME280;72484;50.004;14.356;2024-01-30T00:38:17;99695.17;;;0.79;82.77
82746;BME280;72484;50.004;14.356;2024-01-30T00:41:55;99693.02;;;0.76;82.81
82746;BME280;72484;50.004;14.356;2024-01-30T00:45:16;99699.91;;;0.72;82.81
82746;BME280;72484;50.004;14.356;2024-01-30T00:49:31;99700.27;;;0.71;83.71
82746;BME280;72484;50.004;14.356;2024-01-30T00:53:09;99697.17;;;0.75;83.69
82746;BME280;72484;50.004;14.356;2024-01-30T00:56:47;99694.38;;;0.78;83.40
82746;BME280;72484;50.004;14.356;2024-01-30T01:00:25;99687.70;;;0.78;83.42
82746;BME280;72484;50.004;14.356;2024-01-30T01:03:45;99689.63;;;0.79;83.06
82746;BME280;72484;50.004;14.356;2024-01-30T01:07:45;99686.84;;;0.74;83.01
82746;BME280;72484;50.004;14.356;2024-01-30T01:12:01;99685.73;;;0.75;82.59
82746;BME280;72484;50.004;14.356;2024-01-30T01:15:38;99680.80;;;0.77;82.31
82746;BME280;72484;50.004;14.356;2024-01-30T01:19:16;99673.73;;;0.75;82.28
82746;BME280;72484;50.004;14.356;2024-01-30T01:22:37;99675.77;;;0.63;81.18
82746;BME280;72484;50.004;14.356;2024-01-30T01:26:36;99677.00;;;0.56;82.19
82746;BME280;72484;50.004;14.356;2024-01-30T01:30:52;99677.33;;;0.59;82.82
82746;BME280;72484;50.004;14.356;2024-01-30T01:34:29;99672.99;;;0.67;82.99
82746;BME280;72484;50.004;14.356;2024-01-30T01:38:07;99673.34;;;0.73;82.62
82746;BME280;72484;50.004;14.356;2024-01-30T01:41:45;99677.55;;;0.75;82.36
82746;BME280;72484;50.004;14.356;2024-01-30T01:45:23;99677.15;;;0.72;82.15
82746;BME280;72484;50.004;14.356;2024-01-30T01:49:01;99679.89;;;0.70;81.92
82746;BME280;72484;50.004;14.356;2024-01-30T01:52:39;99672.11;;;0.73;81.12
82746;BME280;72484;50.004;14.356;2024-01-30T01:56:16;99667.30;;;0.72;81.14
82746;BME280;72484;50.004;14.356;2024-01-30T01:59:53;99666.41;;;0.69;80.80
82746;BME280;72484;50.004;14.356;2024-01-30T02:03:15;99667.29;;;0.67;80.55
82746;BME280;72484;50.004;14.356;2024-01-30T02:07:16;99667.61;;;0.54;80.42
82746;BME280;72484;50.004;14.356;2024-01-30T02:11:32;99664.54;;;0.55;81.10
82746;BME280;72484;50.004;14.356;2024-01-30T02:15:14;99661.48;;;0.54;81.92
82746;BME280;72484;50.004;14.356;2024-01-30T02:18:47;99661.13;;;0.57;82.06
82746;BME280;72484;50.004;14.356;2024-01-30T02:22:08;99666.90;;;0.64;82.63
82746;BME280;72484;50.004;14.356;2024-01-30T02:26:25;99669.16;;;0.70;82.69
82746;BME280;72484;50.004;14.356;2024-01-30T02:29:45;99660.19;;;0.70;82.58
82746;BME280;72484;50.004;14.356;2024-01-30T02:34:01;99665.69;;;0.76;82.32
82746;BME280;72484;50.004;14.356;2024-01-30T02:37:21;99670.88;;;0.72;81.78
82746;BME280;72484;50.004;14.356;2024-01-30T02:41:20;99670.02;;;0.68;82.09
82746;BME280;72484;50.004;14.356;2024-01-30T02:45:18;99669.27;;;0.69;82.14
82746;BME280;72484;50.004;14.356;2024-01-30T02:49:33;99665.41;;;0.64;82.18
82746;BME280;72484;50.004;14.356;2024-01-30T02:53:11;99659.89;;;0.68;82.21
82746;BME280;72484;50.004;14.356;2024-01-30T02:56:49;99663.79;;;0.66;82.26
82746;BME280;72484;50.004;14.356;2024-01-30T03:00:11;99654.59;;;0.72;82.68
82746;BME280;72484;50.004;14.356;2024-01-30T03:04:27;99655.11;;;0.73;81.70
82746;BME280;72484;50.004;14.356;2024-01-30T03:08:06;99656.00;;;0.70;81.87
82746;BME280;72484;50.004;14.356;2024-01-30T03:11:25;99654.83;;;0.62;81.73
82746;BME280;72484;50.004;14.356;2024-01-30T03:15:23;99650.74;;;0.54;82.10
82746;BME280;72484;50.004;14.356;2024-01-30T03:19:38;99647.36;;;0.49;81.59
82746;BME280;72484;50.004;14.356;2024-01-30T03:23:16;99642.04;;;0.38;82.19
82746;BME280;72484;50.004;14.356;2024-01-30T03:26:36;99643.97;;;0.35;81.84
82746;BME280;72484;50.004;14.356;2024-01-30T03:30:51;99641.16;;;0.29;82.30
82746;BME280;72484;50.004;14.356;2024-01-30T03:34:12;99639.52;;;0.28;82.92
82746;BME280;72484;50.004;14.356;2024-01-30T03:38:10;99639.49;;;0.27;82.96
82746;BME280;72484;50.004;14.356;2024-01-30T03:42:26;99632.43;;;0.25;81.91
82746;BME280;72484;50.004;14.356;2024-01-30T03:45:46;99632.55;;;0.18;82.49
82746;BME280;72484;50.004;14.356;2024-01-30T03:49:44;99633.54;;;0.21;82.81
82746;BME280;72484;50.004;14.356;2024-01-30T03:53:44;99632.81;;;0.19;82.41
82746;BME280;72484;50.004;14.356;2024-01-30T03:58:00;99626.55;;;0.21;82.47
82746;BME280;72484;50.004;14.356;2024-01-30T04:01:21;99627.38;;;0.11;81.34
82746;BME280;72484;50.004;14.356;2024-01-30T04:05:19;99622.21;;;0.01;82.21
82746;BME280;72484;50.004;14.356;2024-01-30T04:09:17;99617.02;;;0.03;82.19
82746;BME280;72484;50.004;14.356;2024-01-30T04:13:33;99611.82;;;0.05;82.11
82746;BME280;72484;50.004;14.356;2024-01-30T04:16:53;99619.24;;;0.05;82.29
82746;BME280;72484;50.004;14.356;2024-01-30T04:21:09;99624.81;;;-0.00;82.30
82746;BME280;72484;50.004;14.356;2024-01-30T04:24:30;99620.15;;;-0.01;82.69
82746;BME280;72484;50.004;14.356;2024-01-30T04:28:28;99622.23;;;-0.03;82.57
82746;BME280;72484;50.004;14.356;2024-01-30T04:32:27;99620.70;;;-0.01;83.18
82746;BME280;72484;50.004;14.356;2024-01-30T04:36:25;99624.10;;;-0.01;83.76
82746;BME280;72484;50.004;14.356;2024-01-30T04:40:41;99625.48;;;-0.16;80.88
82746;BME280;72484;50.004;14.356;2024-01-30T04:44:18;99627.23;;;-0.41;81.36
82746;BME280;72484;50.004;14.356;2024-01-30T04:47:56;99632.33;;;-0.49;82.11
82746;BME280;72484;50.004;14.356;2024-01-30T04:51:34;99630.79;;;-0.60;82.48
82746;BME280;72484;50.004;14.356;2024-01-30T04:54:54;99633.10;;;-0.61;83.09
82746;BME280;72484;50.004;14.356;2024-01-30T04:59:10;99634.84;;;-0.48;84.06
82746;BME280;72484;50.004;14.356;2024-01-30T05:02:30;99635.39;;;-0.40;84.54
82746;BME280;72484;50.004;14.356;2024-01-30T05:06:46;99637.35;;;-0.27;83.90
82746;BME280;72484;50.004;14.356;2024-01-30T05:10:23;99638.33;;;-0.23;83.24
82746;BME280;72484;50.004;14.356;2024-01-30T05:14:01;99644.58;;;-0.22;83.40
82746;BME280;72484;50.004;14.356;2024-01-30T05:17:39;99643.16;;;-0.08;83.04
82746;BME280;72484;50.004;14.356;2024-01-30T05:21:16;99643.19;;;-0.17;80.95
82746;BME280;72484;50.004;14.356;2024-01-30T05:24:54;99646.70;;;-0.28;81.31
82746;BME280;72484;50.004;14.356;2024-01-30T05:28:15;99649.39;;;-0.45;81.45
82746;BME280;72484;50.004;14.356;2024-01-30T05:32:31;99642.59;;;-0.52;81.17
82746;BME280;72484;50.004;14.356;2024-01-30T05:35:52;99645.47;;;-0.72;81.54
82746;BME280;72484;50.004;14.356;2024-01-30T05:40:10;99649.38;;;-0.73;82.17
82746;BME280;72484;50.004;14.356;2024-01-30T05:43:46;99648.13;;;-0.65;83.59
82746;BME280;72484;50.004;14.356;2024-01-30T05:47:06;99640.75;;;-0.55;83.53
82746;BME280;72484;50.004;14.356;2024-01-30T05:51:06;99642.83;;;-0.41;83.30
82746;BME280;72484;50.004;14.356;2024-01-30T05:55:05;99643.00;;;-0.42;82.54
82746;BME280;72484;50.004;14.356;2024-01-30T05:59:04;99637.92;;;-0.40;82.85
82746;BME280;72484;50.004;14.356;2024-01-30T06:03:19;99642.49;;;-0.41;82.15
82746;BME280;72484;50.004;14.356;2024-01-30T06:06:57;99645.34;;;-0.44;82.83
82746;BME280;72484;50.004;14.356;2024-01-30T06:10:34;99638.97;;;-0.41;82.94
82746;BME280;72484;50.004;14.356;2024-01-30T06:14:13;99636.80;;;-0.38;82.92
82746;BME280;72484;50.004;14.356;2024-01-30T06:17:33;99632.64;;;-0.32;82.75
82746;BME280;72484;50.004;14.356;2024-01-30T06:21:33;99632.75;;;-0.28;82.62
82746;BME280;72484;50.004;14.356;2024-01-30T06:25:50;99632.70;;;-0.32;82.34
82746;BME280;72484;50.004;14.356;2024-01-30T06:29:10;99637.52;;;-0.35;82.18
82746;BME280;72484;50.004;14.356;2024-01-30T06:33:10;99641.61;;;-0.33;82.45
82746;BME280;72484;50.004;14.356;2024-01-30T06:37:26;99644.89;;;-0.32;81.64
82746;BME280;72484;50.004;14.356;2024-01-30T06:40:47;99647.86;;;-0.40;80.29
82746;BME280;72484;50.004;14.356;2024-01-30T06:44:45;99649.75;;;-0.54;80.76
82746;BME280;72484;50.004;14.356;2024-01-30T06:49:00;99655.93;;;-0.57;80.60
82746;BME280;72484;50.004;14.356;2024-01-30T06:52:38;99657.36;;;-0.71;80.47
82746;BME280;72484;50.004;14.356;2024-01-30T06:56:16;99663.37;;;-0.78;81.03
82746;BME280;72484;50.004;14.356;2024-01-30T06:59:53;99660.06;;;-0.76;81.93
82746;BME280;72484;50.004;14.356;2024-01-30T07:03:31;99661.50;;;-0.77;81.13
82746;BME280;72484;50.004;14.356;2024-01-30T07:06:52;99665.13;;;-0.73;81.94
82746;BME280;72484;50.004;14.356;2024-01-30T07:11:08;99667.89;;;-0.74;82.97
82746;BME280;72484;50.004;14.356;2024-01-30T07:14:45;99671.48;;;-0.55;82.73
82746;BME280;72484;50.004;14.356;2024-01-30T07:18:23;99676.10;;;-0.46;82.12
82746;BME280;72484;50.004;14.356;2024-01-30T07:22:01;99680.25;;;-0.49;83.32
82746;BME280;72484;50.004;14.356;2024-01-30T07:25:38;99685.76;;;-0.37;83.69
82746;BME280;72484;50.004;14.356;2024-01-30T07:28:59;99691.30;;;-0.38;83.90
82746;BME280;72484;50.004;14.356;2024-01-30T07:33:14;99686.98;;;-0.26;84.36
82746;BME280;72484;50.004;14.356;2024-01-30T07:36:35;99685.21;;;-0.25;83.40
82746;BME280;72484;50.004;14.356;2024-01-30T07:40:33;99694.04;;;-0.24;84.39
82746;BME280;72484;50.004;14.356;2024-01-30T07:44:31;99693.86;;;-0.15;83.69
82746;BME280;72484;50.004;14.356;2024-01-30T07:48:29;99698.33;;;-0.16;82.77
82746;BME280;72484;50.004;14.356;2024-01-30T07:52:45;99700.11;;;-0.14;82.60
82746;BME280;72484;50.004;14.356;2024-01-30T07:56:07;99697.39;;;-0.12;83.06
82746;BME280;72484;50.004;14.356;2024-01-30T08:00:07;99701.71;;;-0.04;82.78
82746;BME280;72484;50.004;14.356;2024-01-30T08:04:23;99697.39;;;-0.02;82.89
82746;BME280;72484;50.004;14.356;2024-01-30T08:07:43;99701.77;;;0.00;82.98
82746;BME280;72484;50.004;14.356;2024-01-30T08:12:00;99698.15;;;0.07;82.71
82746;BME280;72484;50.004;14.356;2024-01-30T08:15:20;99687.48;;;0.08;82.89
82746;BME280;72484;50.004;14.356;2024-01-30T08:19:35;99689.96;;;0.15;82.87
82746;BME280;72484;50.004;14.356;2024-01-30T08:22:56;99691.63;;;0.18;82.80
82746;BME280;72484;50.004;14.356;2024-01-30T08:26:55;99689.92;;;0.24;82.87
82746;BME280;72484;50.004;14.356;2024-01-30T08:31:11;99686.02;;;0.32;82.60
82746;BME280;72484;50.004;14.356;2024-01-30T08:34:48;99682.61;;;0.34;82.86
82746;BME280;72484;50.004;14.356;2024-01-30T08:38:26;99678.73;;;0.47;82.67
82746;BME280;72484;50.004;14.356;2024-01-30T08:41:46;99679.09;;;0.51;82.44
82746;BME280;72484;50.004;14.356;2024-01-30T08:46:03;99678.04;;;0.61;82.53
82746;BME280;72484;50.004;14.356;2024-01-30T08:49:41;99678.83;;;0.67;82.50
82746;BME280;72484;50.004;14.356;2024-01-30T08:53:18;99678.83;;;0.64;82.11
82746;BME280;72484;50.004;14.356;2024-01-30T08:56:38;99679.36;;;0.71;83.20
82746;BME280;72484;50.004;14.356;2024-01-30T09:00:53;99680.81;;;0.85;83.16
82746;BME280;72484;50.004;14.356;2024-01-30T09:04:14;99679.67;;;0.94;83.09
82746;BME280;72484;50.004;14.356;2024-01-30T09:08:12;99680.52;;;0.99;83.47
82746;BME280;72484;50.004;14.356;2024-01-30T09:12:27;99683.01;;;1.03;83.17
82746;BME280;72484;50.004;14.356;2024-01-30T09:15:48;99678.38;;;1.07;82.80
82746;BME280;72484;50.004;14.356;2024-01-30T09:19:46;99676.31;;;1.11;82.86
82746;BME280;72484;50.004;14.356;2024-01-30T09:24:06;99673.17;;;1.14;83.23
82746;BME280;72484;50.004;14.356;2024-01-30T09:27:40;99673.18;;;1.20;83.22
82746;BME280;72484;50.004;14.356;2024-01-30T09:31:17;99676.39;;;1.25;83.11
82746;BME280;72484;50.004;14.356;2024-01-30T09:34:38;99680.02;;;1.24;83.09
82746;BME280;72484;50.004;14.356;2024-01-30T09:38:36;99682.20;;;1.30;83.40
82746;BME280;72484;50.004;14.356;2024-01-30T09:42:36;99686.89;;;1.39;83.35
82746;BME280;72484;50.004;14.356;2024-01-30T09:46:52;99682.90;;;1.48;82.88
82746;BME280;72484;50.004;14.356;2024-01-30T09:50:29;99678.75;;;1.47;82.46
82746;BME280;72484;50.004;14.356;2024-01-30T09:54:09;99678.65;;;1.38;83.21
82746;BME280;72484;50.004;14.356;2024-01-30T09:57:45;99678.94;;;1.35;84.22
82746;BME280;72484;50.004;14.356;2024-01-30T10:01:05;99675.69;;;1.29;84.60
82746;BME280;72484;50.004;14.356;2024-01-30T10:05:05;99674.34;;;1.27;84.96
82746;BME280;72484;50.004;14.356;2024-01-30T10:09:04;99672.42;;;1.27;85.40
82746;BME280;72484;50.004;14.356;2024-01-30T10:13:19;99662.79;;;1.25;85.73
82746;BME280;72484;50.004;14.356;2024-01-30T10:16:40;99662.46;;;1.24;86.04
82746;BME280;72484;50.004;14.356;2024-01-30T10:20:56;99658.48;;;1.25;86.54
82746;BME280;72484;50.004;14.356;2024-01-30T10:24:34;99655.38;;;1.32;86.79
82746;BME280;72484;50.004;14.356;2024-01-30T10:27:57;99650.01;;;1.33;87.53
82746;BME280;72484;50.004;14.356;2024-01-30T10:32:13;99654.04;;;1.42;87.50
82746;BME280;72484;50.004;14.356;2024-01-30T10:35:51;99652.63;;;1.48;87.84
82746;BME280;72484;50.004;14.356;2024-01-30T10:39:30;99651.27;;;1.52;88.03
82746;BME280;72484;50.004;14.356;2024-01-30T10:42:49;99650.11;;;1.55;88.41
82746;BME280;72484;50.004;14.356;2024-01-30T10:47:12;99643.23;;;1.60;89.08
82746;BME280;72484;50.004;14.356;2024-01-30T10:50:46;99637.30;;;1.66;88.77
82746;BME280;72484;50.004;14.356;2024-01-30T10:54:07;99630.73;;;1.67;88.78
82746;BME280;72484;50.004;14.356;2024-01-30T10:58:07;99634.91;;;1.67;89.79
82746;BME280;72484;50.004;14.356;2024-01-30T11:02:25;99633.97;;;1.75;90.12
82746;BME280;72484;50.004;14.356;2024-01-30T11:05:48;99633.42;;;1.74;89.80
82746;BME280;72484;50.004;14.356;2024-01-30T11:10:05;99636.52;;;1.79;89.73
82746;BME280;72484;50.004;14.356;2024-01-30T11:13:41;99635.36;;;1.77;89.55
82746;BME280;72484;50.004;14.356;2024-01-30T11:17:19;99628.15;;;1.83;89.77
82746;BME280;72484;50.004;14.356;2024-01-30T11:20:39;99623.88;;;1.87;89.48
82746;BME280;72484;50.004;14.356;2024-01-30T11:24:44;99625.88;;;1.89;89.91
82746;BME280;72484;50.004;14.356;2024-01-30T11:29:06;99620.16;;;1.95;89.85
82746;BME280;72484;50.004;14.356;2024-01-30T11:32:24;99612.66;;;2.00;89.40
82746;BME280;72484;50.004;14.356;2024-01-30T11:36:43;99613.63;;;2.08;89.38
82746;BME280;72484;50.004;14.356;2024-01-30T11:40:00;99610.03;;;2.13;89.23
82746;BME280;72484;50.004;14.356;2024-01-30T11:44:00;99609.49;;;2.19;89.11
82746;BME280;72484;50.004;14.356;2024-01-30T11:48:01;99610.77;;;2.24;88.99
82746;BME280;72484;50.004;14.356;2024-01-30T11:52:00;99607.77;;;2.32;89.28
82746;BME280;72484;50.004;14.356;2024-01-30T11:56:15;99601.81;;;2.38;89.09
82746;BME280;72484;50.004;14.356;2024-01-30T11:59:53;99597.53;;;2.45;88.90
82746;BME280;72484;50.004;14.356;2024-01-30T12:03:31;99593.69;;;2.47;88.73
82746;BME280;72484;50.004;14.356;2024-01-30T12:06:54;99591.56;;;2.56;88.32
82746;BME280;72484;50.004;14.356;2024-01-30T12:10:57;99591.73;;;2.58;87.58
82746;BME280;72484;50.004;14.356;2024-01-30T12:15:15;99583.50;;;2.57;87.81
82746;BME280;72484;50.004;14.356;2024-01-30T12:18:35;99578.77;;;2.59;88.11
82746;BME280;72484;50.004;14.356;2024-01-30T12:22:51;99581.67;;;2.62;87.90
82746;BME280;72484;50.004;14.356;2024-01-30T12:26:12;99575.67;;;2.56;87.42
82746;BME280;72484;50.004;14.356;2024-01-30T12:30:28;99572.98;;;2.52;87.85
82746;BME280;72484;50.004;14.356;2024-01-30T12:34:05;99568.98;;;2.48;87.96
82746;BME280;72484;50.004;14.356;2024-01-30T12:37:43;99567.42;;;2.43;88.14
82746;BME280;72484;50.004;14.356;2024-01-30T12:41:03;99565.91;;;2.42;88.31
82746;BME280;72484;50.004;14.356;2024-01-30T12:45:01;99563.81;;;2.38;88.43
82746;BME280;72484;50.004;14.356;2024-01-30T12:49:17;99553.60;;;2.36;88.75
82746;BME280;72484;50.004;14.356;2024-01-30T12:52:55;99556.98;;;2.40;88.68
82746;BME280;72484;50.004;14.356;2024-01-30T12:56:33;99555.39;;;2.38;88.68
82746;BME280;72484;50.004;14.356;2024-01-30T12:59:53;99554.54;;;2.38;88.65
82746;BME280;72484;50.004;14.356;2024-01-30T13:03:51;99553.89;;;2.44;88.87
82746;BME280;72484;50.004;14.356;2024-01-30T13:07:50;99548.27;;;2.52;88.68
82746;BME280;72484;50.004;14.356;2024-01-30T13:12:08;99547.23;;;2.64;89.28
82746;BME280;72484;50.004;14.356;2024-01-30T13:15:45;99547.88;;;2.74;88.55
82746;BME280;72484;50.004;14.356;2024-01-30T13:19:22;99551.44;;;2.84;88.41
82746;BME280;72484;50.004;14.356;2024-01-30T13:23:00;99555.67;;;2.90;88.33
82746;BME280;72484;50.004;14.356;2024-01-30T13:26:21;99555.98;;;2.93;87.72
82746;BME280;72484;50.004;14.356;2024-01-30T13:30:37;99549.00;;;2.94;87.32
82746;BME280;72484;50.004;14.356;2024-01-30T13:33:57;99550.92;;;2.96;87.22
82746;BME280;72484;50.004;14.356;2024-01-30T13:38:13;99546.73;;;2.92;87.06
82746;BME280;72484;50.004;14.356;2024-01-30T13:41:33;99540.79;;;2.84;86.81
82746;BME280;72484;50.004;14.356;2024-01-30T13:45:48;99534.05;;;2.78;86.97
82746;BME280;72484;50.004;14.356;2024-01-30T13:49:09;99533.58;;;2.73;87.34
82746;BME280;72484;50.004;14.356;2024-01-30T13:53:08;99528.65;;;2.77;87.51
82746;BME280;72484;50.004;14.356;2024-01-30T13:57:23;99533.73;;;2.77;87.23
82746;BME280;72484;50.004;14.356;2024-01-30T14:01:00;99535.30;;;2.75;87.38
82746;BME280;72484;50.004;14.356;2024-01-30T14:04:38;99536.80;;;2.70;87.47
82746;BME280;72484;50.004;14.356;2024-01-30T14:07:59;99535.31;;;2.72;87.50
82746;BME280;72484;50.004;14.356;2024-01-30T14:12:15;99534.35;;;2.73;87.50
82746;BME280;72484;50.004;14.356;2024-01-30T14:15:35;99530.43;;;2.77;87.25
82746;BME280;72484;50.004;14.356;2024-01-30T14:19:33;99529.55;;;2.75;87.05
82746;BME280;72484;50.004;14.356;2024-01-30T14:23:32;99533.49;;;2.78;86.94
82746;BME280;72484;50.004;14.356;2024-01-30T14:27:47;99528.42;;;2.76;86.63
82746;BME280;72484;50.004;14.356;2024-01-30T14:31:25;99522.14;;;2.74;87.07
82746;BME280;72484;50.004;14.356;2024-01-30T14:34:45;99523.12;;;2.74;86.99
82746;BME280;72484;50.004;14.356;2024-01-30T14:39:01;99520.07;;;2.73;86.82
82746;BME280;72484;50.004;14.356;2024-01-30T14:42:21;99518.16;;;2.68;86.60
82746;BME280;72484;50.004;14.356;2024-01-30T14:46:37;99517.45;;;2.66;86.53
82746;BME280;72484;50.004;14.356;2024-01-30T14:50:14;99521.52;;;2.62;86.89
82746;BME280;72484;50.004;14.356;2024-01-30T14:53:53;99521.02;;;2.59;86.54
82746;BME280;72484;50.004;14.356;2024-01-30T14:57:13;99518.96;;;2.57;86.52
82746;BME280;72484;50.004;14.356;2024-01-30T15:01:29;99517.50;;;2.52;86.00
82746;BME280;72484;50.004;14.356;2024-01-30T15:05:06;99523.19;;;2.48;86.05
82746;BME280;72484;50.004;14.356;2024-01-30T15:08:44;99525.94;;;2.46;86.14
82746;BME280;72484;50.004;14.356;2024-01-30T15:12:06;99523.92;;;2.39;86.43
82746;BME280;72484;50.004;14.356;2024-01-30T15:16:04;99524.34;;;2.36;86.59
82746;BME280;72484;50.004;14.356;2024-01-30T15:20:20;99524.69;;;2.35;86.32
82746;BME280;72484;50.004;14.356;2024-01-30T15:23:57;99526.23;;;2.31;86.51
82746;BME280;72484;50.004;14.356;2024-01-30T15:27:35;99521.45;;;2.30;86.45
82746;BME280;72484;50.004;14.356;2024-01-30T15:31:13;99517.67;;;2.27;86.57
82746;BME280;72484;50.004;14.356;2024-01-30T15:34:33;99515.56;;;2.26;86.74
82746;BME280;72484;50.004;14.356;2024-01-30T15:38:48;99524.15;;;2.26;86.64
82746;BME280;72484;50.004;14.356;2024-01-30T15:42:26;99521.33;;;2.26;86.67
82746;BME280;72484;50.004;14.356;2024-01-30T15:46:04;99519.01;;;2.22;86.72
82746;BME280;72484;50.004;14.356;2024-01-30T15:49:24;99525.25;;;2.22;86.85
82746;BME280;72484;50.004;14.356;2024-01-30T15:53:39;99522.08;;;2.21;86.89
82746;BME280;72484;50.004;14.356;2024-01-30T15:57:17;99530.92;;;2.20;86.67
82746;BME280;72484;50.004;14.356;2024-01-30T16:00:55;99533.84;;;2.23;86.75
82746;BME280;72484;50.004;14.356;2024-01-30T16:04:33;99530.58;;;2.21;86.55
82746;BME280;72484;50.004;14.356;2024-01-30T16:07:53;99528.40;;;2.15;86.53
82746;BME280;72484;50.004;14.356;2024-01-30T16:11:51;99529.40;;;2.09;86.76
82746;BME280;72484;50.004;14.356;2024-01-30T16:15:49;99533.33;;;2.04;86.99
82746;BME280;72484;50.004;14.356;2024-01-30T16:19:47;99539.60;;;2.02;87.43
82746;BME280;72484;50.004;14.356;2024-01-30T16:23:46;99542.13;;;2.04;87.45
82746;BME280;72484;50.004;14.356;2024-01-30T16:27:44;99547.67;;;2.06;87.32
82746;BME280;72484;50.004;14.356;2024-01-30T16:31:59;99543.86;;;2.10;87.13
82746;BME280;72484;50.004;14.356;2024-01-30T16:35:20;99546.09;;;2.04;86.81
82746;BME280;72484;50.004;14.356;2024-01-30T16:39:36;99549.49;;;2.03;87.11
82746;BME280;72484;50.004;14.356;2024-01-30T16:42:56;99550.48;;;2.01;87.46
82746;BME280;72484;50.004;14.356;2024-01-30T16:46:54;99549.20;;;2.04;86.95
82746;BME280;72484;50.004;14.356;2024-01-30T16:50:52;99545.73;;;1.96;87.14
82746;BME280;72484;50.004;14.356;2024-01-30T16:54:51;99536.02;;;1.93;87.53
82746;BME280;72484;50.004;14.356;2024-01-30T16:59:06;99532.13;;;1.88;87.81
82746;BME280;72484;50.004;14.356;2024-01-30T17:02:27;99532.96;;;1.83;87.99
82746;BME280;72484;50.004;14.356;2024-01-30T17:06:25;99537.94;;;1.80;88.20
82746;BME280;72484;50.004;14.356;2024-01-30T17:10:40;99540.90;;;1.81;88.53
82746;BME280;72484;50.004;14.356;2024-01-30T17:14:01;99548.84;;;1.78;88.41
82746;BME280;72484;50.004;14.356;2024-01-30T17:18:16;99548.19;;;1.80;88.56
82746;BME280;72484;50.004;14.356;2024-01-30T17:21:54;99549.00;;;1.78;88.35
82746;BME280;72484;50.004;14.356;2024-01-30T17:25:31;99549.20;;;1.77;88.51
82746;BME280;72484;50.004;14.356;2024-01-30T17:29:09;99552.59;;;1.76;88.38
82746;BME280;72484;50.004;14.356;2024-01-30T17:32:30;99552.35;;;1.77;88.52
82746;BME280;72484;50.004;14.356;2024-01-30T17:36:45;99546.55;;;1.83;88.33
82746;BME280;72484;50.004;14.356;2024-01-30T17:40:07;99545.08;;;1.88;88.03
82746;BME280;72484;50.004;14.356;2024-01-30T17:44:23;99547.40;;;1.87;87.79
82746;BME280;72484;50.004;14.356;2024-01-30T17:47:43;99550.08;;;1.89;88.15
82746;BME280;72484;50.004;14.356;2024-01-30T17:51:42;99548.23;;;1.96;87.59
82746;BME280;72484;50.004;14.356;2024-01-30T17:55:57;99551.20;;;1.98;87.42
82746;BME280;72484;50.004;14.356;2024-01-30T17:59:18;99551.73;;;2.04;87.33
82746;BME280;72484;50.004;14.356;2024-01-30T18:03:35;99554.70;;;2.06;86.99
82746;BME280;72484;50.004;14.356;2024-01-30T18:07:13;99554.59;;;2.08;86.82
82746;BME280;72484;50.004;14.356;2024-01-30T18:10:51;99554.99;;;2.06;86.98
82746;BME280;72484;50.004;14.356;2024-01-30T18:14:11;99552.77;;;2.02;86.86
82746;BME280;72484;50.004;14.356;2024-01-30T18:18:26;99552.62;;;2.01;87.35
82746;BME280;72484;50.004;14.356;2024-01-30T18:22:04;99549.39;;;2.03;86.86
82746;BME280;72484;50.004;14.356;2024-01-30T18:25:25;99549.62;;;1.98;86.84
82746;BME280;72484;50.004;14.356;2024-01-30T18:29:40;99542.64;;;1.93;87.15
82746;BME280;72484;50.004;14.356;2024-01-30T18:33:17;99545.38;;;1.89;87.21
82746;BME280;72484;50.004;14.356;2024-01-30T18:36:55;99543.84;;;1.84;87.37
82746;BME280;72484;50.004;14.356;2024-01-30T18:40:16;99546.42;;;1.82;87.48
82746;BME280;72484;50.004;14.356;2024-01-30T18:44:32;99546.54;;;1.80;87.74
82746;BME280;72484;50.004;14.356;2024-01-30T18:47:52;99548.08;;;1.80;87.85
82746;BME280;72484;50.004;14.356;2024-01-30T18:52:08;99540.08;;;1.83;87.97
82746;BME280;72484;50.004;14.356;2024-01-30T18:55:45;99538.05;;;1.80;87.65
82746;BME280;72484;50.004;14.356;2024-01-30T18:59:06;99539.28;;;1.77;87.89
82746;BME280;72484;50.004;14.356;2024-01-30T19:03:21;99540.67;;;1.81;87.83
82746;BME280;72484;50.004;14.356;2024-01-30T19:06:42;99543.17;;;1.85;87.66
82746;BME280;72484;50.004;14.356;2024-01-30T19:10:57;99546.73;;;1.88;87.49
82746;BME280;72484;50.004;14.356;2024-01-30T19:14:18;99551.46;;;1.89;87.74
82746;BME280;72484;50.004;14.356;2024-01-30T19:18:16;99549.01;;;1.90;86.93
82746;BME280;72484;50.004;14.356;2024-01-30T19:22:31;99546.64;;;1.89;86.93
82746;BME280;72484;50.004;14.356;2024-01-30T19:26:09;99546.45;;;1.86;86.53
82746;BME280;72484;50.004;14.356;2024-01-30T19:29:47;99539.69;;;1.79;86.90
82746;BME280;72484;50.004;14.356;2024-01-30T19:33:07;99545.33;;;1.80;87.07
82746;BME280;72484;50.004;14.356;2024-01-30T19:37:23;99554.84;;;1.83;87.46
82746;BME280;72484;50.004;14.356;2024-01-30T19:41:01;99550.47;;;1.99;86.73
82746;BME280;72484;50.004;14.356;2024-01-30T19:44:38;99546.77;;;2.14;86.21
82746;BME280;72484;50.004;14.356;2024-01-30T19:47:59;99550.09;;;2.23;85.58
82746;BME280;72484;50.004;14.356;2024-01-30T19:51:57;99546.41;;;2.31;84.68
82746;BME280;72484;50.004;14.356;2024-01-30T19:56:16;99542.27;;;2.38;84.11